createdAt,value
2022-10-10T00:01:20.937Z,11.82
2022-10-10T00:04:08.589Z,11.81
2022-10-10T00:06:56.417Z,11.81
2022-10-10T00:09:44.334Z,11.83
2022-10-10T00:12:32.047Z,11.83
2022-10-10T00:15:19.954Z,11.86
2022-10-10T00:18:07.923Z,11.85
2022-10-10T00:20:55.946Z,11.84
2022-10-10T00:23:44.039Z,11.85
2022-10-10T00:26:31.921Z,11.84
2022-10-10T00:29:19.763Z,11.83
2022-10-10T00:32:07.628Z,11.81
2022-10-10T00:34:55.445Z,11.77
2022-10-10T00:37:43.249Z,11.76
2022-10-10T00:45:28.819Z,11.78
2022-10-10T00:48:22.976Z,11.82
2022-10-10T00:51:17.946Z,11.85
2022-10-10T00:54:10.057Z,11.87
2022-10-10T00:57:04.736Z,11.85
2022-10-10T00:59:53.731Z,11.80
2022-10-10T01:02:41.954Z,11.75
2022-10-10T01:05:30.371Z,11.72
2022-10-10T01:08:19.726Z,11.70
2022-10-10T01:11:32.461Z,11.61
2022-10-10T01:14:35.823Z,11.57
2022-10-10T01:17:41.991Z,11.52
2022-10-10T01:20:51.348Z,11.51
2022-10-10T01:23:54.521Z,11.57
2022-10-10T01:27:08.134Z,11.54
2022-10-10T01:30:09.498Z,11.50
2022-10-10T01:32:57.015Z,11.45
2022-10-10T01:35:47.655Z,11.43
2022-10-10T01:38:54.871Z,11.43
2022-10-10T01:42:04.940Z,11.46
2022-10-10T01:44:54.268Z,11.46
2022-10-10T01:47:41.905Z,11.49
2022-10-10T01:50:38.714Z,11.54
2022-10-10T01:53:31.992Z,11.51
2022-10-10T01:56:19.742Z,11.46
2022-10-10T02:00:02.091Z,11.43
2022-10-10T02:03:10.337Z,11.38
2022-10-10T02:06:10.086Z,11.33
2022-10-10T02:09:07.303Z,11.29
2022-10-10T02:11:56.587Z,11.26
2022-10-10T02:14:48.477Z,11.28
2022-10-10T02:17:39.522Z,11.27
2022-10-10T02:20:30.579Z,11.26
2022-10-10T02:23:21.556Z,11.24
2022-10-10T02:26:12.959Z,11.24
2022-10-10T02:29:16.588Z,11.23
2022-10-10T02:32:16.775Z,11.22
2022-10-10T02:35:09.494Z,11.22
2022-10-10T02:38:00.299Z,11.25
2022-10-10T02:40:50.242Z,11.29
2022-10-10T02:43:38.701Z,11.33
2022-10-10T02:46:26.379Z,11.32
2022-10-10T02:49:14.375Z,11.29
2022-10-10T02:52:02.606Z,11.28
2022-10-10T02:54:50.318Z,11.30
2022-10-10T02:57:38.163Z,11.28
2022-10-10T03:00:26.560Z,11.24
2022-10-10T03:03:14.233Z,11.28
2022-10-10T03:06:02.869Z,11.24
2022-10-10T03:08:50.487Z,11.23
2022-10-10T03:11:38.054Z,11.26
2022-10-10T03:14:25.918Z,11.27
2022-10-10T03:17:13.940Z,11.28
2022-10-10T03:20:01.940Z,11.29
2022-10-10T03:22:51.781Z,11.31
2022-10-10T03:25:43.766Z,11.38
2022-10-10T03:28:31.894Z,11.33
2022-10-10T03:31:19.510Z,11.30
2022-10-10T03:34:07.464Z,11.29
2022-10-10T03:36:55.135Z,11.29
2022-10-10T03:39:43.265Z,11.30
2022-10-10T03:42:30.905Z,11.30
2022-10-10T03:45:19.142Z,11.26
2022-10-10T03:48:06.912Z,11.26
2022-10-10T03:50:54.703Z,11.25
2022-10-10T03:53:44.222Z,11.28
2022-10-10T03:56:31.891Z,11.34
2022-10-10T03:59:19.806Z,11.40
2022-10-10T04:02:07.824Z,11.38
2022-10-10T04:04:55.473Z,11.40
2022-10-10T04:07:43.569Z,11.43
2022-10-10T04:10:31.648Z,11.41
2022-10-10T04:13:20.801Z,11.34
2022-10-10T04:16:08.842Z,11.29
2022-10-10T04:18:56.528Z,11.24
2022-10-10T04:21:45.020Z,11.16
2022-10-10T04:24:33.340Z,11.09
2022-10-10T04:27:21.159Z,11.12
2022-10-10T04:30:09.879Z,11.22
2022-10-10T04:32:57.903Z,11.28
2022-10-10T04:35:48.536Z,11.31
2022-10-10T04:38:36.398Z,11.37
2022-10-10T04:41:24.344Z,11.35
2022-10-10T04:44:12.029Z,11.30
2022-10-10T04:46:59.899Z,11.31
2022-10-10T04:49:47.971Z,11.33
2022-10-10T04:52:36.133Z,11.43
2022-10-10T04:55:24.345Z,11.52
2022-10-10T04:58:12.583Z,11.58
2022-10-10T05:01:00.833Z,11.61
2022-10-10T05:03:48.479Z,11.54
2022-10-10T05:06:36.617Z,11.45
2022-10-10T05:09:24.548Z,11.43
2022-10-10T05:12:12.211Z,11.39
2022-10-10T05:15:00.188Z,11.31
2022-10-10T05:17:47.867Z,11.22
2022-10-10T05:20:37.217Z,11.17
2022-10-10T05:23:24.899Z,11.21
2022-10-10T05:26:12.879Z,11.12
2022-10-10T05:29:01.944Z,11.00
2022-10-10T05:31:49.755Z,10.92
2022-10-10T05:34:38.020Z,10.91
2022-10-10T05:37:25.687Z,10.89
2022-10-10T05:40:13.632Z,10.82
2022-10-10T05:43:01.771Z,10.75
2022-10-10T05:45:49.466Z,10.76
2022-10-10T05:48:37.341Z,10.84
2022-10-10T05:51:25.495Z,10.94
2022-10-10T05:54:13.173Z,10.99
2022-10-10T05:57:01.316Z,10.88
2022-10-10T05:59:48.942Z,10.75
2022-10-10T06:02:36.792Z,10.65
2022-10-10T06:05:25.426Z,10.61
2022-10-10T06:08:13.021Z,10.59
2022-10-10T06:11:04.807Z,10.60
2022-10-10T06:13:54.425Z,10.61
2022-10-10T06:16:45.491Z,10.65
2022-10-10T06:19:33.184Z,10.76
2022-10-10T06:22:21.517Z,10.80
2022-10-10T06:25:23.989Z,10.89
2022-10-10T06:28:17.513Z,10.94
2022-10-10T06:31:08.462Z,11.00
2022-10-10T06:33:56.212Z,11.00
2022-10-10T06:36:44.059Z,10.95
2022-10-10T06:39:32.058Z,10.91
2022-10-10T06:42:20.167Z,10.87
2022-10-10T06:45:14.080Z,10.86
2022-10-10T06:48:02.170Z,10.86
2022-10-10T06:51:03.996Z,10.84
2022-10-10T06:53:52.175Z,10.85
2022-10-10T06:56:39.743Z,10.90
2022-10-10T06:59:27.965Z,10.92
2022-10-10T07:02:15.679Z,10.95
2022-10-10T07:05:03.714Z,10.95
2022-10-10T07:07:52.575Z,11.04
2022-10-10T07:10:40.222Z,11.13
2022-10-10T07:13:28.605Z,11.17
2022-10-10T07:16:16.191Z,11.18
2022-10-10T07:19:05.139Z,11.16
2022-10-10T07:21:53.255Z,11.17
2022-10-10T07:24:41.387Z,11.22
2022-10-10T07:27:29.282Z,11.27
2022-10-10T07:30:17.394Z,11.31
2022-10-10T07:33:10.630Z,11.41
2022-10-10T07:35:58.505Z,11.48
2022-10-10T07:38:51.917Z,11.53
2022-10-10T07:41:39.783Z,11.55
2022-10-10T07:44:31.202Z,11.60
2022-10-10T07:47:21.832Z,11.62
2022-10-10T07:50:11.856Z,11.57
2022-10-10T07:53:00.222Z,11.56
2022-10-10T07:55:48.159Z,11.59
2022-10-10T07:58:36.773Z,11.63
2022-10-10T08:01:25.017Z,11.66
2022-10-10T08:04:13.111Z,11.73
2022-10-10T08:07:01.025Z,11.77
2022-10-10T08:09:48.912Z,11.77
2022-10-10T08:12:36.925Z,11.81
2022-10-10T08:15:26.091Z,11.83
2022-10-10T08:18:16.073Z,11.84
2022-10-10T08:21:06.690Z,11.85
2022-10-10T08:23:55.734Z,11.88
2022-10-10T08:26:43.356Z,11.91
2022-10-10T08:29:33.255Z,11.94
2022-10-10T08:32:21.143Z,11.96
2022-10-10T08:35:09.263Z,12.02
2022-10-10T08:37:57.077Z,12.06
2022-10-10T08:40:50.722Z,12.15
2022-10-10T08:43:47.635Z,12.20
2022-10-10T08:46:44.782Z,12.18
2022-10-10T08:49:37.661Z,12.20
2022-10-10T08:52:33.234Z,12.22
2022-10-10T08:55:31.263Z,12.23
2022-10-10T08:58:21.042Z,12.24
2022-10-10T09:01:28.673Z,12.24
2022-10-10T09:04:19.840Z,12.28
2022-10-10T09:07:41.331Z,12.30
2022-10-10T09:10:57.368Z,12.36
2022-10-10T09:14:03.952Z,12.39
2022-10-10T09:17:17.329Z,12.45
2022-10-10T09:20:18.807Z,12.47
2022-10-10T09:23:28.669Z,12.52
2022-10-10T09:26:22.092Z,12.55
2022-10-10T09:29:25.885Z,12.61
2022-10-10T09:32:24.778Z,12.66
2022-10-10T09:35:34.792Z,12.67
2022-10-10T09:38:34.616Z,12.65
2022-10-10T09:41:59.652Z,12.59
2022-10-10T09:44:47.560Z,12.58
2022-10-10T09:47:35.810Z,12.60
2022-10-10T09:50:27.624Z,12.59
2022-10-10T09:53:17.309Z,12.61
2022-10-10T09:56:06.027Z,12.65
2022-10-10T09:58:56.060Z,12.68
2022-10-10T10:02:02.017Z,12.72
2022-10-10T10:04:51.238Z,12.76
2022-10-10T10:07:48.424Z,12.77
2022-10-10T10:10:38.172Z,12.76
2022-10-10T10:13:33.047Z,12.77
2022-10-10T10:16:29.511Z,12.77
2022-10-10T10:19:34.150Z,12.76
2022-10-10T10:22:46.947Z,12.77
2022-10-10T10:25:37.853Z,12.80
2022-10-10T10:28:26.069Z,12.81
2022-10-10T10:31:52.160Z,12.86
2022-10-10T10:34:54.048Z,12.88
2022-10-10T10:37:50.637Z,12.88
2022-10-10T10:41:01.306Z,12.87
2022-10-10T10:44:04.022Z,12.86
2022-10-10T10:47:18.627Z,12.88
2022-10-10T10:50:50.625Z,12.90
2022-10-10T10:53:51.542Z,12.92
2022-10-10T10:56:53.023Z,12.91
2022-10-10T11:00:22.050Z,12.93
2022-10-10T11:05:20.168Z,12.90
2022-10-10T11:07:20.295Z,12.88
2022-10-10T11:10:27.655Z,12.85
2022-10-10T11:13:24.399Z,12.82
2022-10-10T11:16:36.683Z,12.79
2022-10-10T11:19:38.312Z,12.79
2022-10-10T11:22:31.962Z,12.74
2022-10-10T11:25:26.139Z,12.73
2022-10-10T11:28:29.470Z,12.74
2022-10-10T11:31:42.688Z,12.75
2022-10-10T11:34:33.633Z,12.77
2022-10-10T11:37:27.750Z,12.77
2022-10-10T11:40:32.507Z,12.70
2022-10-10T11:43:35.409Z,12.67
2022-10-10T11:46:47.559Z,12.66
2022-10-10T11:50:07.262Z,12.62
2022-10-10T11:53:17.697Z,12.60
2022-10-10T11:56:12.398Z,12.59
2022-10-10T11:59:24.296Z,12.59
2022-10-10T12:02:25.703Z,12.60
2022-10-10T12:05:24.863Z,12.61
2022-10-10T12:08:22.428Z,12.69
2022-10-10T12:11:18.735Z,12.71
2022-10-10T12:14:10.189Z,12.71
2022-10-10T12:16:58.816Z,12.68
2022-10-10T12:19:48.849Z,12.69
2022-10-10T12:22:36.794Z,12.72
2022-10-10T12:25:37.060Z,13.03
2022-10-10T12:29:02.334Z,13.62
2022-10-10T12:32:30.358Z,14.10
2022-10-10T12:35:29.365Z,14.55
2022-10-10T12:38:21.043Z,14.61
2022-10-10T12:41:11.876Z,14.77
2022-10-10T12:44:22.361Z,14.98
2022-10-10T12:47:15.964Z,15.19
2022-10-10T12:50:21.973Z,15.34
2022-10-10T12:53:12.509Z,15.49
2022-10-10T12:56:02.622Z,15.52
2022-10-10T12:58:50.691Z,15.48
2022-10-10T13:01:46.679Z,15.61
2022-10-10T13:04:34.683Z,15.77
2022-10-10T13:07:24.956Z,15.84
2022-10-10T13:10:23.025Z,16.08
2022-10-10T13:13:13.979Z,16.24
2022-10-10T13:16:14.550Z,16.26
2022-10-10T13:19:02.552Z,16.33
2022-10-10T13:21:55.680Z,16.44
2022-10-10T13:24:44.336Z,16.60
2022-10-10T13:27:35.231Z,16.80
2022-10-10T13:30:25.211Z,16.90
2022-10-10T13:33:22.212Z,16.79
2022-10-10T13:36:20.946Z,16.90
2022-10-10T13:39:15.614Z,17.00
2022-10-10T13:42:06.359Z,16.83
2022-10-10T13:44:55.336Z,16.85
2022-10-10T13:47:49.677Z,16.88
2022-10-10T13:50:43.583Z,16.71
2022-10-10T13:53:44.260Z,16.68
2022-10-10T13:56:41.399Z,16.26
2022-10-10T13:59:30.266Z,15.34
2022-10-10T14:02:25.384Z,15.33
2022-10-10T14:05:26.215Z,15.46
2022-10-10T14:08:18.603Z,15.44
2022-10-10T14:11:08.659Z,14.60
2022-10-10T14:14:17.237Z,14.06
2022-10-10T14:17:05.941Z,13.76
2022-10-10T14:19:53.925Z,13.09
2022-10-10T14:22:41.824Z,12.55
2022-10-10T14:25:30.023Z,12.18
2022-10-10T14:28:25.331Z,11.91
2022-10-10T14:31:13.339Z,11.72
2022-10-10T14:34:01.240Z,11.60
2022-10-10T14:36:50.677Z,11.47
2022-10-10T14:39:38.310Z,11.33
2022-10-10T14:42:26.587Z,11.22
2022-10-10T14:45:16.579Z,11.14
2022-10-10T14:48:04.673Z,11.05
2022-10-10T14:50:52.560Z,10.95
2022-10-10T14:53:40.528Z,10.83
2022-10-10T14:57:09.185Z,10.72
2022-10-10T14:59:48.629Z,10.67
2022-10-10T15:02:42.006Z,10.63
2022-10-10T15:05:32.229Z,10.57
2022-10-10T15:08:20.318Z,10.52
2022-10-10T15:11:08.199Z,10.49
2022-10-10T15:13:57.341Z,10.40
2022-10-10T15:16:45.121Z,10.32
2022-10-10T15:19:33.037Z,10.22
2022-10-10T15:22:20.976Z,10.15
2022-10-10T15:25:09.870Z,10.06
2022-10-10T15:27:58.821Z,10.00
2022-10-10T15:30:46.942Z,9.99
2022-10-10T15:33:34.870Z,10.01
2022-10-10T15:36:23.117Z,9.97
2022-10-10T15:39:11.568Z,9.93
2022-10-10T15:42:08.000Z,9.88
2022-10-10T15:44:59.888Z,9.83
2022-10-10T15:47:47.606Z,9.76
2022-10-10T15:50:39.260Z,9.72
2022-10-10T15:53:29.047Z,9.67
2022-10-10T15:56:17.210Z,9.56
2022-10-10T15:59:05.636Z,9.48
2022-10-10T16:01:54.741Z,9.48
2022-10-10T16:04:42.978Z,9.49
2022-10-10T16:07:34.642Z,9.54
2022-10-10T16:10:26.403Z,9.52
2022-10-10T16:13:14.119Z,9.48
2022-10-10T16:16:04.357Z,9.46
2022-10-10T16:18:52.890Z,9.43
2022-10-10T16:21:40.976Z,9.34
2022-10-10T16:24:29.031Z,9.26
2022-10-10T16:27:16.795Z,9.21
2022-10-10T16:30:06.369Z,9.24
2022-10-10T16:32:54.054Z,9.19
2022-10-10T16:35:42.243Z,9.15
2022-10-10T16:38:29.880Z,9.17
2022-10-10T16:41:42.525Z,9.18
2022-10-10T16:44:26.367Z,9.07
2022-10-10T16:47:14.215Z,9.04
2022-10-10T16:50:02.643Z,8.98
2022-10-10T16:52:51.356Z,9.05
2022-10-10T16:55:40.693Z,9.01
2022-10-10T16:58:29.972Z,8.96
2022-10-10T17:01:20.870Z,8.92
2022-10-10T17:04:09.135Z,8.88
2022-10-10T17:06:57.019Z,8.81
2022-10-10T17:09:46.310Z,8.80
2022-10-10T17:12:34.078Z,8.77
2022-10-10T17:15:22.611Z,8.72
2022-10-10T17:18:10.477Z,8.71
2022-10-10T17:20:58.830Z,8.73
2022-10-10T17:23:47.415Z,8.74
2022-10-10T17:26:35.259Z,8.63
2022-10-10T17:29:23.732Z,8.61
2022-10-10T17:32:12.468Z,8.58
2022-10-10T17:35:00.403Z,8.47
2022-10-10T17:37:48.518Z,8.44
2022-10-10T17:40:39.509Z,8.47
2022-10-10T17:43:27.608Z,8.39
2022-10-10T17:46:40.104Z,8.36
2022-10-10T17:49:28.521Z,8.40
2022-10-10T17:52:20.928Z,8.44
2022-10-10T17:55:09.307Z,8.48
2022-10-10T17:57:59.252Z,8.42
2022-10-10T18:00:47.374Z,8.37
2022-10-10T18:03:35.563Z,8.35
2022-10-10T18:06:23.918Z,8.34
2022-10-10T18:09:12.152Z,8.36
2022-10-10T18:11:59.938Z,8.38
2022-10-10T18:14:48.350Z,8.36
2022-10-10T18:17:35.969Z,8.28
2022-10-10T18:20:24.396Z,8.24
2022-10-10T18:23:12.125Z,8.17
2022-10-10T18:26:11.431Z,8.20
2022-10-10T18:28:59.745Z,8.21
2022-10-10T18:31:47.506Z,8.11
2022-10-10T18:34:35.328Z,8.08
2022-10-10T18:37:23.250Z,8.08
2022-10-10T18:40:12.096Z,8.02
2022-10-10T18:42:59.899Z,7.93
2022-10-10T18:45:49.505Z,7.91
2022-10-10T18:48:38.641Z,7.91
2022-10-10T18:51:29.685Z,7.89
2022-10-10T18:54:18.401Z,7.83
2022-10-10T18:57:06.492Z,7.77
2022-10-10T18:59:55.172Z,7.78
2022-10-10T19:02:43.372Z,7.77
2022-10-10T19:05:30.936Z,7.80
2022-10-10T19:08:18.997Z,7.79
2022-10-10T19:11:08.185Z,7.73
2022-10-10T19:13:58.280Z,7.69
2022-10-10T19:16:47.877Z,7.63
2022-10-10T19:19:36.943Z,7.59
2022-10-10T19:22:25.097Z,7.58
2022-10-10T19:25:13.240Z,7.57
2022-10-10T19:28:01.120Z,7.53
2022-10-10T19:30:50.077Z,7.49
2022-10-10T19:33:38.003Z,7.39
2022-10-10T19:36:26.737Z,7.27
2022-10-10T19:39:14.626Z,7.19
2022-10-10T19:42:02.731Z,7.22
2022-10-10T19:44:52.339Z,7.24
2022-10-10T19:47:40.175Z,7.27
2022-10-10T19:50:27.999Z,7.29
2022-10-10T19:53:18.074Z,7.30
2022-10-10T19:56:20.503Z,7.28
2022-10-10T19:59:08.719Z,7.21
2022-10-10T20:01:56.381Z,7.13
2022-10-10T20:04:45.247Z,7.18
2022-10-10T20:07:32.899Z,7.14
2022-10-10T20:10:20.746Z,7.04
2022-10-10T20:13:12.642Z,6.88
2022-10-10T20:16:03.367Z,6.79
2022-10-10T20:18:51.704Z,6.74
2022-10-10T20:21:39.549Z,6.68
2022-10-10T20:24:27.547Z,6.61
2022-10-10T20:27:15.795Z,6.51
2022-10-10T20:30:04.547Z,6.45
2022-10-10T20:32:52.415Z,6.38
2022-10-10T20:35:39.997Z,6.38
2022-10-10T20:38:28.148Z,6.42
2022-10-10T20:41:16.045Z,6.46
2022-10-10T20:44:05.645Z,6.44
2022-10-10T20:46:53.506Z,6.41
2022-10-10T20:49:41.355Z,6.38
2022-10-10T20:52:28.930Z,6.37
2022-10-10T20:55:16.751Z,6.44
2022-10-10T20:58:04.538Z,6.55
2022-10-10T21:01:07.891Z,6.57
2022-10-10T21:03:55.905Z,6.57
2022-10-10T21:06:43.836Z,6.59
2022-10-10T21:09:32.811Z,6.58
2022-10-10T21:12:20.967Z,6.59
2022-10-10T21:15:09.279Z,6.55
2022-10-10T21:17:58.159Z,6.54
2022-10-10T21:20:45.722Z,6.52
2022-10-10T21:23:36.663Z,6.56
2022-10-10T21:26:26.511Z,6.58
2022-10-10T21:29:14.792Z,6.56
2022-10-10T21:32:02.717Z,6.59
2022-10-10T21:34:54.368Z,6.62
2022-10-10T21:37:45.527Z,6.64
2022-10-10T21:40:37.303Z,6.65
2022-10-10T21:43:24.886Z,6.69
2022-10-10T21:46:15.579Z,6.71
2022-10-10T21:49:06.839Z,6.75
2022-10-10T21:51:54.662Z,6.69
2022-10-10T21:54:42.458Z,6.66
2022-10-10T21:57:31.047Z,6.62
2022-10-10T22:00:19.574Z,6.57
2022-10-10T22:03:07.652Z,6.54
2022-10-10T22:05:55.223Z,6.49
2022-10-10T22:08:44.036Z,6.42
2022-10-10T22:11:32.896Z,6.37
2022-10-10T22:14:20.620Z,6.36
2022-10-10T22:17:08.437Z,6.30
2022-10-10T22:19:56.364Z,6.29
2022-10-10T22:22:45.701Z,6.28
2022-10-10T22:25:33.348Z,6.26
2022-10-10T22:28:21.592Z,6.29
2022-10-10T22:31:13.174Z,6.32
2022-10-10T22:34:01.207Z,6.31
2022-10-10T22:36:49.116Z,6.28
2022-10-10T22:39:37.798Z,6.23
2022-10-10T22:42:25.474Z,6.20
2022-10-10T22:45:13.255Z,6.18
2022-10-10T22:48:00.974Z,6.14
2022-10-10T22:50:57.985Z,6.09
2022-10-10T22:53:47.230Z,6.07
2022-10-10T22:56:35.296Z,6.06
2022-10-10T22:59:22.829Z,6.05
2022-10-10T23:02:10.912Z,6.05
2022-10-10T23:04:59.582Z,6.00
2022-10-10T23:07:47.648Z,5.97
2022-10-10T23:10:35.393Z,5.93
2022-10-10T23:13:23.374Z,5.93
2022-10-10T23:16:12.335Z,5.91
2022-10-10T23:18:59.896Z,5.88
2022-10-10T23:21:47.679Z,5.86
2022-10-10T23:24:37.630Z,5.86
2022-10-10T23:27:25.678Z,5.83
2022-10-10T23:30:13.619Z,5.82
2022-10-10T23:33:01.783Z,5.85
2022-10-10T23:36:03.864Z,5.84
2022-10-10T23:38:52.621Z,5.82
2022-10-10T23:41:40.744Z,5.78
2022-10-10T23:44:28.634Z,5.73
2022-10-10T23:47:16.723Z,5.72
2022-10-10T23:50:04.715Z,5.70
2022-10-10T23:52:52.522Z,5.68
2022-10-10T23:55:40.561Z,5.61
2022-10-10T23:58:28.749Z,5.56
